Ekin-s — TCMW3 — position and weather

sailwx.info

Track history (hours):
 
Tides and Currents Weather Stations Pressure Air Temp Water Temp Dewpoint Dewpoint Depression Visibility Wind Speed Wind Dir Waves Ship Positions

Ekin-s

Last reported at 2015-Aug-30 17:16 UTC. Time now 2015-Aug-30 18:09 UTC.
Position N 36°19' W 008°22'.

Length 109 m; draft 6.5 m.

Type: Ship (hazmat cat B). MMSI: 271042836.

Date/timePositionNaut miles runAvg speedWind from/ knotsBaromVisibWave heightAir tempDewpointWater temp
2015-Aug-30 17:16N 36°19' W 008°22'912.6
2015-Aug-30 16:32N 36°21' W 008°33'1212.5
2015-Aug-30 15:33N 36°24' W 008°48'1312.5
2015-Aug-30 14:33N 36°27' W 009°03'1212.5
2015-Aug-30 13:33N 36°30' W 009°18'1212.2
2015-Aug-30 12:33N 36°38' W 009°29'2811.8
2015-Aug-30 10:09N 37°04' W 009°43'3912.6
2015-Aug-30 07:04N 37°42' W 009°54'1811.9
2015-Aug-30 05:33N 37°60' W 009°59'1312.1
2015-Aug-30 04:27N 38°13' W 010°03'1213.0
2015-Aug-30 03:33N 38°24' W 010°06'1312.8
2015-Aug-30 02:33N 38°37' W 010°10'1312.6
2015-Aug-30 01:33N 38°49' W 010°11'1212.5
2015-Aug-30 00:33N 39°02' W 010°11'1312.7
2015-Aug-29 23:33N 39°14' W 010°12'1513.3
2015-Aug-29 22:27N 39°29' W 010°11'1313.3
2015-Aug-29 21:30N 39°42' W 010°11'2813.1
2015-Aug-29 19:22N 40°10' W 010°11'1012.9
2015-Aug-29 18:33N 40°20' W 010°11'1313.1
2015-Aug-29 17:33N 40°33' W 010°11'  
2015-Aug-26 21:19N 50°33' E 000°03'911.2
2015-Aug-26 20:32N 50°35' E 000°16'1010.6
2015-Aug-26 19:33N 50°38' E 000°32'1010.2
2015-Aug-26 18:33N 50°44' E 000°45'1010.2
2015-Aug-26 17:33N 50°49' E 000°59'1211.2
2015-Aug-26 16:31N 50°57' E 001°13'1212.0
2015-Aug-26 15:33N 51°04' E 001°27'1211.8
2015-Aug-26 14:33N 51°12' E 001°41'1211.7
2015-Aug-26 13:33N 51°21' E 001°52'1110.6
2015-Aug-26 12:33N 51°30' E 002°02'1010.2
2015-Aug-26 11:33N 51°38' E 002°13'6010.0
2015-Aug-26 05:33N 52°03' E 003°40'1111.0
2015-Aug-26 04:33N 52°02' E 003°58'1313.0
2015-Aug-26 03:34N 51°55' E 004°16'2 2.2
2015-Aug-26 02:33N 51°53' E 004°18'0 0.0
2015-Aug-26 01:33N 51°53' E 004°18'0 0.0
2015-Aug-26 00:27N 51°53' E 004°18'0 0.0
2015-Aug-25 23:30N 51°53' E 004°18'0 0.0
2015-Aug-25 22:27N 51°53' E 004°18'0 0.0
2015-Aug-25 21:18N 51°53' E 004°18'0 0.0
2015-Aug-25 20:27N 51°53' E 004°18'0 0.0
2015-Aug-25 19:33N 51°53' E 004°18'0 0.0
2015-Aug-25 18:27N 51°53' E 004°18'0 0.0
2015-Aug-25 17:27N 51°53' E 004°18'0 0.0
2015-Aug-25 16:21N 51°53' E 004°18'0 0.0
2015-Aug-25 15:33N 51°53' E 004°18'0 0.0
2015-Aug-25 14:33N 51°53' E 004°18'0 0.0
2015-Aug-25 13:27N 51°53' E 004°18'0 0.0
2015-Aug-25 12:30N 51°53' E 004°18'0 0.0
2015-Aug-25 11:30N 51°53' E 004°18'0 0.0
2015-Aug-25 10:24N 51°53' E 004°18'0 0.0
2015-Aug-25 09:30N 51°53' E 004°18'0 0.0
2015-Aug-25 07:06N 51°53' E 004°18'0 0.0
2015-Aug-25 06:30N 51°53' E 004°18'0 0.0
2015-Aug-25 05:33N 51°53' E 004°18'4 3.8
2015-Aug-25 04:33N 51°55' E 004°14'1110.7
2015-Aug-25 03:34N 51°60' E 003°58'1110.5
2015-Aug-25 02:34N 51°58' E 003°41'11 9.9
2015-Aug-25 01:29N 51°55' E 003°24'17 8.4
2015-Aug-24 23:26N 51°38' E 003°21'1011.5
2015-Aug-24 22:33N 51°30' E 003°29'1110.9
2015-Aug-24 21:34N 51°23' E 003°43'9 9.4
2015-Aug-24 20:34N 51°25' E 003°58'8 7.7
2015-Aug-24 19:33N 51°23' E 004°10'8 8.3
2015-Aug-24 18:33N 51°17' E 004°19'1 0.8
2015-Aug-24 17:33N 51°17' E 004°20'0 0.3
2015-Aug-24 16:34N 51°16' E 004°20'0 0.2
2015-Aug-24 15:33N 51°17' E 004°20'0 0.0
2015-Aug-24 14:33N 51°17' E 004°20'0 0.0
2015-Aug-24 13:30N 51°17' E 004°20'0 0.0
2015-Aug-24 12:33N 51°17' E 004°20'0 0.0
2015-Aug-24 11:33N 51°17' E 004°20'0 0.0
2015-Aug-24 10:30N 51°17' E 004°20'0 0.0
2015-Aug-24 09:33N 51°17' E 004°20'0 0.0
2015-Aug-24 08:33N 51°17' E 004°20'0 0.0
2015-Aug-24 07:33N 51°17' E 004°20'0 0.0
2015-Aug-24 06:33N 51°17' E 004°20'0 0.0
2015-Aug-24 05:33N 51°17' E 004°20'0 0.0
2015-Aug-24 04:30N 51°17' E 004°20'0 0.0
2015-Aug-24 03:33N 51°17' E 004°20'0 0.0
2015-Aug-24 02:33N 51°17' E 004°20'0 0.0
2015-Aug-24 01:33N 51°17' E 004°20'0 0.0
2015-Aug-24 00:33N 51°17' E 004°20'0 0.0
2015-Aug-23 23:33N 51°17' E 004°20'0 0.0
2015-Aug-23 22:33N 51°17' E 004°20'0 0.0
2015-Aug-23 21:33N 51°17' E 004°20'0 0.0
2015-Aug-23 20:30N 51°17' E 004°20'0 0.0
2015-Aug-23 19:33N 51°17' E 004°20'0 0.0
2015-Aug-23 18:30N 51°17' E 004°20'0 0.0
2015-Aug-23 17:33N 51°17' E 004°20'0 0.0
2015-Aug-23 16:30N 51°17' E 004°20'0 0.0
2015-Aug-23 15:33N 51°17' E 004°20'0 0.0
2015-Aug-23 14:33N 51°17' E 004°20'0 0.0
2015-Aug-23 13:33N 51°17' E 004°20'0 0.0
2015-Aug-23 12:33N 51°17' E 004°20'0 0.0
2015-Aug-23 11:33N 51°17' E 004°20'0 0.0
2015-Aug-23 10:33N 51°17' E 004°20'0 0.0
2015-Aug-23 09:30N 51°17' E 004°20'0 0.0
2015-Aug-23 08:33N 51°17' E 004°20'2 2.0
2015-Aug-23 07:28N 51°15' E 004°23'0 0.0
2015-Aug-23 06:31N 51°15' E 004°23'0 0.0
2015-Aug-23 05:31N 51°15' E 004°23'0 0.0
2015-Aug-23 04:28N 51°15' E 004°23'0 0.0
2015-Aug-23 03:31N 51°15' E 004°23'0 0.0
2015-Aug-23 02:31N 51°15' E 004°23'0 0.0
2015-Aug-23 01:31N 51°15' E 004°23'0 0.0
2015-Aug-23 00:31N 51°15' E 004°23'0 0.0
2015-Aug-22 23:31N 51°15' E 004°23'0 0.0
2015-Aug-22 22:31N 51°15' E 004°23'0 0.0
2015-Aug-22 21:31N 51°15' E 004°23'0 0.0
2015-Aug-22 20:31N 51°15' E 004°23'0 0.0
2015-Aug-22 19:31N 51°15' E 004°23'0 0.0
2015-Aug-22 18:28N 51°15' E 004°23'0 0.0
2015-Aug-22 17:31N 51°15' E 004°23'0 0.0
2015-Aug-22 16:31N 51°15' E 004°23'0 0.0
2015-Aug-22 15:31N 51°15' E 004°23'0 0.0
2015-Aug-22 14:31N 51°15' E 004°23'0 0.0
2015-Aug-22 13:31N 51°15' E 004°23'0 0.0
2015-Aug-22 12:31N 51°15' E 004°23'0 0.0
2015-Aug-22 11:31N 51°15' E 004°23'0 0.0
2015-Aug-22 10:31N 51°15' E 004°23'0 0.0
2015-Aug-22 09:31N 51°15' E 004°23'0 0.0
2015-Aug-22 08:31N 51°15' E 004°23'0 0.0
2015-Aug-22 07:31N 51°15' E 004°23'0 0.0
2015-Aug-22 06:31N 51°15' E 004°23'0 0.0
2015-Aug-22 05:31N 51°15' E 004°23'0 0.0
2015-Aug-22 04:31N 51°15' E 004°23'0 0.0
2015-Aug-22 03:31N 51°15' E 004°23'0 0.0
2015-Aug-22 02:33N 51°15' E 004°23'0 0.0
2015-Aug-22 01:33N 51°15' E 004°23'2 2.2
2015-Aug-22 00:33N 51°17' E 004°20'1 1.1
2015-Aug-21 23:33N 51°18' E 004°20'0 0.0
2015-Aug-21 22:33N 51°18' E 004°20'0 0.0
2015-Aug-21 21:33N 51°18' E 004°20'0 0.0
2015-Aug-21 20:33N 51°18' E 004°20'0 0.0
2015-Aug-21 19:33N 51°18' E 004°20'0 0.0
2015-Aug-21 18:33N 51°18' E 004°20'0 0.0
2015-Aug-21 17:33N 51°18' E 004°20'0 0.1
2015-Aug-21 16:33N 51°18' E 004°20'0 0.0
2015-Aug-21 15:33N 51°18' E 004°20'0 0.0
2015-Aug-21 14:33N 51°18' E 004°20'0 0.0
2015-Aug-21 13:33N 51°18' E 004°20'0 0.0
2015-Aug-21 12:33N 51°18' E 004°20'0 0.0
2015-Aug-21 11:33N 51°18' E 004°20'0 0.0
2015-Aug-21 10:33N 51°18' E 004°20'0 0.0
2015-Aug-21 09:33N 51°18' E 004°20'0 0.0
2015-Aug-21 08:33N 51°18' E 004°20'0 0.0
2015-Aug-21 07:33N 51°18' E 004°20'0 0.0
2015-Aug-21 06:33N 51°18' E 004°20'0 0.0
2015-Aug-21 05:33N 51°18' E 004°20'0 0.0
2015-Aug-21 04:33N 51°18' E 004°20'0 0.0
2015-Aug-21 03:33N 51°18' E 004°20'0 0.0
2015-Aug-21 02:33N 51°18' E 004°20'0 0.0
2015-Aug-21 01:33N 51°18' E 004°20'0 0.0
2015-Aug-21 00:33N 51°18' E 004°20'0 0.0
2015-Aug-20 23:33N 51°18' E 004°20'0 0.0
2015-Aug-20 22:33N 51°18' E 004°20'0 0.0
2015-Aug-20 21:33N 51°18' E 004°20'0 0.0
2015-Aug-20 20:33N 51°18' E 004°20'0 0.0
2015-Aug-20 19:33N 51°18' E 004°20'0 0.0
2015-Aug-20 18:33N 51°18' E 004°20'0 0.0
2015-Aug-20 17:33N 51°18' E 004°20'  
Track history (hours):
 
Tides and Currents Weather Stations Pressure Air Temp Water Temp Dewpoint Dewpoint Depression Visibility Wind Speed Wind Dir Waves Ship Positions

Ekin-s

Last reported at 2015-Aug-30 17:16 UTC. Time now 2015-Aug-30 18:09 UTC.
Position N 36°19' W 008°22'.

Length 109 m; draft 6.5 m.

Type: Ship (hazmat cat B). MMSI: 271042836.

Date/timePositionNaut miles runAvg speedWind from/ knotsBaromVisibWave heightAir tempDewpointWater temp
2015-Aug-30 17:16N 36°19' W 008°22'912.6
2015-Aug-30 16:32N 36°21' W 008°33'1212.5
2015-Aug-30 15:33N 36°24' W 008°48'1312.5
2015-Aug-30 14:33N 36°27' W 009°03'1212.5
2015-Aug-30 13:33N 36°30' W 009°18'1212.2
2015-Aug-30 12:33N 36°38' W 009°29'2811.8
2015-Aug-30 10:09N 37°04' W 009°43'3912.6
2015-Aug-30 07:04N 37°42' W 009°54'1811.9
2015-Aug-30 05:33N 37°60' W 009°59'1312.1
2015-Aug-30 04:27N 38°13' W 010°03'1213.0
2015-Aug-30 03:33N 38°24' W 010°06'1312.8
2015-Aug-30 02:33N 38°37' W 010°10'1312.6
2015-Aug-30 01:33N 38°49' W 010°11'1212.5
2015-Aug-30 00:33N 39°02' W 010°11'1312.7
2015-Aug-29 23:33N 39°14' W 010°12'1513.3
2015-Aug-29 22:27N 39°29' W 010°11'1313.3
2015-Aug-29 21:30N 39°42' W 010°11'2813.1
2015-Aug-29 19:22N 40°10' W 010°11'1012.9
2015-Aug-29 18:33N 40°20' W 010°11'1313.1
2015-Aug-29 17:33N 40°33' W 010°11'  
2015-Aug-26 21:19N 50°33' E 000°03'911.2
2015-Aug-26 20:32N 50°35' E 000°16'1010.6
2015-Aug-26 19:33N 50°38' E 000°32'1010.2
2015-Aug-26 18:33N 50°44' E 000°45'1010.2
2015-Aug-26 17:33N 50°49' E 000°59'1211.2
2015-Aug-26 16:31N 50°57' E 001°13'1212.0
2015-Aug-26 15:33N 51°04' E 001°27'1211.8
2015-Aug-26 14:33N 51°12' E 001°41'1211.7
2015-Aug-26 13:33N 51°21' E 001°52'1110.6
2015-Aug-26 12:33N 51°30' E 002°02'1010.2
2015-Aug-26 11:33N 51°38' E 002°13'6010.0
2015-Aug-26 05:33N 52°03' E 003°40'1111.0
2015-Aug-26 04:33N 52°02' E 003°58'1313.0
2015-Aug-26 03:34N 51°55' E 004°16'2 2.2
2015-Aug-26 02:33N 51°53' E 004°18'0 0.0
2015-Aug-26 01:33N 51°53' E 004°18'0 0.0
2015-Aug-26 00:27N 51°53' E 004°18'0 0.0
2015-Aug-25 23:30N 51°53' E 004°18'0 0.0
2015-Aug-25 22:27N 51°53' E 004°18'0 0.0
2015-Aug-25 21:18N 51°53' E 004°18'0 0.0
2015-Aug-25 20:27N 51°53' E 004°18'0 0.0
2015-Aug-25 19:33N 51°53' E 004°18'0 0.0
2015-Aug-25 18:27N 51°53' E 004°18'0 0.0
2015-Aug-25 17:27N 51°53' E 004°18'0 0.0
2015-Aug-25 16:21N 51°53' E 004°18'0 0.0
2015-Aug-25 15:33N 51°53' E 004°18'0 0.0
2015-Aug-25 14:33N 51°53' E 004°18'0 0.0
2015-Aug-25 13:27N 51°53' E 004°18'0 0.0
2015-Aug-25 12:30N 51°53' E 004°18'0 0.0
2015-Aug-25 11:30N 51°53' E 004°18'0 0.0
2015-Aug-25 10:24N 51°53' E 004°18'0 0.0
2015-Aug-25 09:30N 51°53' E 004°18'0 0.0
2015-Aug-25 07:06N 51°53' E 004°18'0 0.0
2015-Aug-25 06:30N 51°53' E 004°18'0 0.0
2015-Aug-25 05:33N 51°53' E 004°18'4 3.8
2015-Aug-25 04:33N 51°55' E 004°14'1110.7
2015-Aug-25 03:34N 51°60' E 003°58'1110.5
2015-Aug-25 02:34N 51°58' E 003°41'11 9.9
2015-Aug-25 01:29N 51°55' E 003°24'17 8.4
2015-Aug-24 23:26N 51°38' E 003°21'1011.5
2015-Aug-24 22:33N 51°30' E 003°29'1110.9
2015-Aug-24 21:34N 51°23' E 003°43'9 9.4
2015-Aug-24 20:34N 51°25' E 003°58'8 7.7
2015-Aug-24 19:33N 51°23' E 004°10'8 8.3
2015-Aug-24 18:33N 51°17' E 004°19'1 0.8
2015-Aug-24 17:33N 51°17' E 004°20'0 0.3
2015-Aug-24 16:34N 51°16' E 004°20'0 0.2
2015-Aug-24 15:33N 51°17' E 004°20'0 0.0
2015-Aug-24 14:33N 51°17' E 004°20'0 0.0
2015-Aug-24 13:30N 51°17' E 004°20'0 0.0
2015-Aug-24 12:33N 51°17' E 004°20'0 0.0
2015-Aug-24 11:33N 51°17' E 004°20'0 0.0
2015-Aug-24 10:30N 51°17' E 004°20'0 0.0
2015-Aug-24 09:33N 51°17' E 004°20'0 0.0
2015-Aug-24 08:33N 51°17' E 004°20'0 0.0
2015-Aug-24 07:33N 51°17' E 004°20'0 0.0
2015-Aug-24 06:33N 51°17' E 004°20'0 0.0
2015-Aug-24 05:33N 51°17' E 004°20'0 0.0
2015-Aug-24 04:30N 51°17' E 004°20'0 0.0
2015-Aug-24 03:33N 51°17' E 004°20'0 0.0
2015-Aug-24 02:33N 51°17' E 004°20'0 0.0
2015-Aug-24 01:33N 51°17' E 004°20'0 0.0
2015-Aug-24 00:33N 51°17' E 004°20'0 0.0
2015-Aug-23 23:33N 51°17' E 004°20'0 0.0
2015-Aug-23 22:33N 51°17' E 004°20'0 0.0
2015-Aug-23 21:33N 51°17' E 004°20'0 0.0
2015-Aug-23 20:30N 51°17' E 004°20'0 0.0
2015-Aug-23 19:33N 51°17' E 004°20'0 0.0
2015-Aug-23 18:30N 51°17' E 004°20'0 0.0
2015-Aug-23 17:33N 51°17' E 004°20'0 0.0
2015-Aug-23 16:30N 51°17' E 004°20'0 0.0
2015-Aug-23 15:33N 51°17' E 004°20'0 0.0
2015-Aug-23 14:33N 51°17' E 004°20'0 0.0
2015-Aug-23 13:33N 51°17' E 004°20'0 0.0
2015-Aug-23 12:33N 51°17' E 004°20'0 0.0
2015-Aug-23 11:33N 51°17' E 004°20'0 0.0
2015-Aug-23 10:33N 51°17' E 004°20'0 0.0
2015-Aug-23 09:30N 51°17' E 004°20'0 0.0
2015-Aug-23 08:33N 51°17' E 004°20'2 2.0
2015-Aug-23 07:28N 51°15' E 004°23'0 0.0
2015-Aug-23 06:31N 51°15' E 004°23'0 0.0
2015-Aug-23 05:31N 51°15' E 004°23'0 0.0
2015-Aug-23 04:28N 51°15' E 004°23'0 0.0
2015-Aug-23 03:31N 51°15' E 004°23'0 0.0
2015-Aug-23 02:31N 51°15' E 004°23'0 0.0
2015-Aug-23 01:31N 51°15' E 004°23'0 0.0
2015-Aug-23 00:31N 51°15' E 004°23'0 0.0
2015-Aug-22 23:31N 51°15' E 004°23'0 0.0
2015-Aug-22 22:31N 51°15' E 004°23'0 0.0
2015-Aug-22 21:31N 51°15' E 004°23'0 0.0
2015-Aug-22 20:31N 51°15' E 004°23'0 0.0
2015-Aug-22 19:31N 51°15' E 004°23'0 0.0
2015-Aug-22 18:28N 51°15' E 004°23'0 0.0
2015-Aug-22 17:31N 51°15' E 004°23'0 0.0
2015-Aug-22 16:31N 51°15' E 004°23'0 0.0
2015-Aug-22 15:31N 51°15' E 004°23'0 0.0
2015-Aug-22 14:31N 51°15' E 004°23'0 0.0
2015-Aug-22 13:31N 51°15' E 004°23'0 0.0
2015-Aug-22 12:31N 51°15' E 004°23'0 0.0
2015-Aug-22 11:31N 51°15' E 004°23'0 0.0
2015-Aug-22 10:31N 51°15' E 004°23'0 0.0
2015-Aug-22 09:31N 51°15' E 004°23'0 0.0
2015-Aug-22 08:31N 51°15' E 004°23'0 0.0
2015-Aug-22 07:31N 51°15' E 004°23'0 0.0
2015-Aug-22 06:31N 51°15' E 004°23'0 0.0
2015-Aug-22 05:31N 51°15' E 004°23'0 0.0
2015-Aug-22 04:31N 51°15' E 004°23'0 0.0
2015-Aug-22 03:31N 51°15' E 004°23'0 0.0
2015-Aug-22 02:33N 51°15' E 004°23'0 0.0
2015-Aug-22 01:33N 51°15' E 004°23'2 2.2
2015-Aug-22 00:33N 51°17' E 004°20'1 1.1
2015-Aug-21 23:33N 51°18' E 004°20'0 0.0
2015-Aug-21 22:33N 51°18' E 004°20'0 0.0
2015-Aug-21 21:33N 51°18' E 004°20'0 0.0
2015-Aug-21 20:33N 51°18' E 004°20'0 0.0
2015-Aug-21 19:33N 51°18' E 004°20'0 0.0
2015-Aug-21 18:33N 51°18' E 004°20'0 0.0
2015-Aug-21 17:33N 51°18' E 004°20'0 0.1
2015-Aug-21 16:33N 51°18' E 004°20'0 0.0
2015-Aug-21 15:33N 51°18' E 004°20'0 0.0
2015-Aug-21 14:33N 51°18' E 004°20'0 0.0
2015-Aug-21 13:33N 51°18' E 004°20'0 0.0
2015-Aug-21 12:33N 51°18' E 004°20'0 0.0
2015-Aug-21 11:33N 51°18' E 004°20'0 0.0
2015-Aug-21 10:33N 51°18' E 004°20'0 0.0
2015-Aug-21 09:33N 51°18' E 004°20'0 0.0
2015-Aug-21 08:33N 51°18' E 004°20'0 0.0
2015-Aug-21 07:33N 51°18' E 004°20'0 0.0
2015-Aug-21 06:33N 51°18' E 004°20'0 0.0
2015-Aug-21 05:33N 51°18' E 004°20'0 0.0
2015-Aug-21 04:33N 51°18' E 004°20'0 0.0
2015-Aug-21 03:33N 51°18' E 004°20'0 0.0
2015-Aug-21 02:33N 51°18' E 004°20'0 0.0
2015-Aug-21 01:33N 51°18' E 004°20'0 0.0
2015-Aug-21 00:33N 51°18' E 004°20'0 0.0
2015-Aug-20 23:33N 51°18' E 004°20'0 0.0
2015-Aug-20 22:33N 51°18' E 004°20'0 0.0
2015-Aug-20 21:33N 51°18' E 004°20'0 0.0
2015-Aug-20 20:33N 51°18' E 004°20'0 0.0
2015-Aug-20 19:33N 51°18' E 004°20'0 0.0
2015-Aug-20 18:33N 51°18' E 004°20'0 0.0
2015-Aug-20 17:33N 51°18' E 004°20'  

Dump ship's entire track history